sensor_id;sensor_type;location;lat;lon;timestamp;P1;durP1;ratioP1;P2;durP2;ratioP2
30934;SDS011;51033;42.648;23.292;2024-02-23T00:00:30;20.80;;;13.30;;
30934;SDS011;51033;42.648;23.292;2024-02-23T00:02:55;20.48;;;13.55;;
30934;SDS011;51033;42.648;23.292;2024-02-23T00:05:23;20.80;;;12.45;;
30934;SDS011;51033;42.648;23.292;2024-02-23T00:07:48;18.58;;;13.52;;
30934;SDS011;51033;42.648;23.292;2024-02-23T00:10:14;24.67;;;16.20;;
30934;SDS011;51033;42.648;23.292;2024-02-23T00:12:39;45.72;;;24.92;;
30934;SDS011;51033;42.648;23.292;2024-02-23T00:15:05;32.90;;;17.60;;
30934;SDS011;51033;42.648;23.292;2024-02-23T00:17:31;21.42;;;13.63;;
30934;SDS011;51033;42.648;23.292;2024-02-23T00:19:56;21.50;;;13.45;;
30934;SDS011;51033;42.648;23.292;2024-02-23T00:22:21;18.75;;;13.90;;
30934;SDS011;51033;42.648;23.292;2024-02-23T00:24:47;20.83;;;14.40;;
30934;SDS011;51033;42.648;23.292;2024-02-23T00:27:12;20.20;;;14.00;;
30934;SDS011;51033;42.648;23.292;2024-02-23T00:29:37;19.35;;;13.95;;
30934;SDS011;51033;42.648;23.292;2024-02-23T00:32:03;17.52;;;13.52;;
30934;SDS011;51033;42.648;23.292;2024-02-23T00:34:29;19.77;;;12.35;;
30934;SDS011;51033;42.648;23.292;2024-02-23T00:36:56;15.50;;;11.48;;
30934;SDS011;51033;42.648;23.292;2024-02-23T00:39:22;19.90;;;13.13;;
30934;SDS011;51033;42.648;23.292;2024-02-23T00:41:48;19.23;;;11.23;;
30934;SDS011;51033;42.648;23.292;2024-02-23T00:44:13;17.85;;;12.32;;
30934;SDS011;51033;42.648;23.292;2024-02-23T00:46:39;16.10;;;11.13;;
30934;SDS011;51033;42.648;23.292;2024-02-23T00:49:05;18.23;;;10.55;;
30934;SDS011;51033;42.648;23.292;2024-02-23T00:51:31;15.77;;;11.18;;
30934;SDS011;51033;42.648;23.292;2024-02-23T00:53:56;16.65;;;9.80;;
30934;SDS011;51033;42.648;23.292;2024-02-23T00:56:21;13.15;;;9.40;;
30934;SDS011;51033;42.648;23.292;2024-02-23T00:58:47;17.52;;;11.35;;
30934;SDS011;51033;42.648;23.292;2024-02-23T01:01:12;14.95;;;10.93;;
30934;SDS011;51033;42.648;23.292;2024-02-23T01:03:38;15.10;;;10.48;;
30934;SDS011;51033;42.648;23.292;2024-02-23T01:06:03;17.05;;;10.75;;
30934;SDS011;51033;42.648;23.292;2024-02-23T01:08:29;15.88;;;11.13;;
30934;SDS011;51033;42.648;23.292;2024-02-23T01:10:54;14.77;;;10.60;;
30934;SDS011;51033;42.648;23.292;2024-02-23T01:13:20;13.48;;;9.93;;
30934;SDS011;51033;42.648;23.292;2024-02-23T01:15:45;19.63;;;11.05;;
30934;SDS011;51033;42.648;23.292;2024-02-23T01:18:10;13.73;;;9.73;;
30934;SDS011;51033;42.648;23.292;2024-02-23T01:20:36;11.68;;;8.82;;
30934;SDS011;51033;42.648;23.292;2024-02-23T01:23:02;15.77;;;10.65;;
30934;SDS011;51033;42.648;23.292;2024-02-23T01:25:27;13.48;;;9.13;;
30934;SDS011;51033;42.648;23.292;2024-02-23T01:27:52;15.25;;;10.65;;
30934;SDS011;51033;42.648;23.292;2024-02-23T01:30:18;16.52;;;10.45;;
30934;SDS011;51033;42.648;23.292;2024-02-23T01:32:44;13.20;;;9.23;;
30934;SDS011;51033;42.648;23.292;2024-02-23T01:35:10;12.27;;;8.27;;
30934;SDS011;51033;42.648;23.292;2024-02-23T01:37:35;11.98;;;9.68;;
30934;SDS011;51033;42.648;23.292;2024-02-23T01:40:01;14.07;;;9.73;;
30934;SDS011;51033;42.648;23.292;2024-02-23T01:42:26;12.82;;;8.70;;
30934;SDS011;51033;42.648;23.292;2024-02-23T01:44:52;13.68;;;9.35;;
30934;SDS011;51033;42.648;23.292;2024-02-23T01:47:17;14.38;;;9.98;;
30934;SDS011;51033;42.648;23.292;2024-02-23T01:49:43;14.88;;;9.20;;
30934;SDS011;51033;42.648;23.292;2024-02-23T01:52:11;14.13;;;9.55;;
30934;SDS011;51033;42.648;23.292;2024-02-23T01:54:38;14.50;;;10.05;;
30934;SDS011;51033;42.648;23.292;2024-02-23T01:57:03;13.90;;;9.57;;
30934;SDS011;51033;42.648;23.292;2024-02-23T01:59:29;15.70;;;10.27;;
30934;SDS011;51033;42.648;23.292;2024-02-23T02:01:55;14.95;;;10.80;;
30934;SDS011;51033;42.648;23.292;2024-02-23T02:04:20;16.38;;;10.90;;
30934;SDS011;51033;42.648;23.292;2024-02-23T02:06:46;19.25;;;13.38;;
30934;SDS011;51033;42.648;23.292;2024-02-23T02:09:13;15.75;;;10.95;;
30934;SDS011;51033;42.648;23.292;2024-02-23T02:11:45;17.20;;;9.38;;
30934;SDS011;51033;42.648;23.292;2024-02-23T02:14:12;14.45;;;9.00;;
30934;SDS011;51033;42.648;23.292;2024-02-23T02:16:38;16.25;;;8.70;;
30934;SDS011;51033;42.648;23.292;2024-02-23T02:19:04;22.55;;;13.65;;
30934;SDS011;51033;42.648;23.292;2024-02-23T02:21:30;13.25;;;9.40;;
30934;SDS011;51033;42.648;23.292;2024-02-23T02:23:56;12.80;;;9.00;;
30934;SDS011;51033;42.648;23.292;2024-02-23T02:26:21;15.80;;;11.00;;
30934;SDS011;51033;42.648;23.292;2024-02-23T02:28:47;12.20;;;8.45;;
30934;SDS011;51033;42.648;23.292;2024-02-23T02:31:12;13.63;;;9.38;;
30934;SDS011;51033;42.648;23.292;2024-02-23T02:33:39;13.55;;;9.55;;
30934;SDS011;51033;42.648;23.292;2024-02-23T02:36:05;12.52;;;9.63;;
30934;SDS011;51033;42.648;23.292;2024-02-23T02:38:30;15.18;;;9.70;;
30934;SDS011;51033;42.648;23.292;2024-02-23T02:40:58;12.40;;;9.30;;
30934;SDS011;51033;42.648;23.292;2024-02-23T02:43:25;12.02;;;8.80;;
30934;SDS011;51033;42.648;23.292;2024-02-23T02:45:51;14.57;;;9.48;;
30934;SDS011;51033;42.648;23.292;2024-02-23T02:48:16;13.82;;;9.23;;
30934;SDS011;51033;42.648;23.292;2024-02-23T02:50:42;13.20;;;9.65;;
30934;SDS011;51033;42.648;23.292;2024-02-23T02:53:07;14.25;;;9.38;;
30934;SDS011;51033;42.648;23.292;2024-02-23T02:55:33;12.00;;;9.15;;
30934;SDS011;51033;42.648;23.292;2024-02-23T02:57:58;14.52;;;10.45;;
30934;SDS011;51033;42.648;23.292;2024-02-23T03:00:24;12.85;;;9.50;;
30934;SDS011;51033;42.648;23.292;2024-02-23T03:02:49;15.80;;;9.10;;
30934;SDS011;51033;42.648;23.292;2024-02-23T03:05:15;11.65;;;8.60;;
30934;SDS011;51033;42.648;23.292;2024-02-23T03:07:40;14.80;;;9.07;;
30934;SDS011;51033;42.648;23.292;2024-02-23T03:10:06;13.45;;;9.27;;
30934;SDS011;51033;42.648;23.292;2024-02-23T03:12:32;12.23;;;8.82;;
30934;SDS011;51033;42.648;23.292;2024-02-23T03:14:57;10.48;;;8.52;;
30934;SDS011;51033;42.648;23.292;2024-02-23T03:17:23;11.38;;;8.68;;
30934;SDS011;51033;42.648;23.292;2024-02-23T03:19:49;13.23;;;10.20;;
30934;SDS011;51033;42.648;23.292;2024-02-23T03:22:15;11.90;;;9.45;;
30934;SDS011;51033;42.648;23.292;2024-02-23T03:24:41;16.95;;;12.02;;
30934;SDS011;51033;42.648;23.292;2024-02-23T03:27:06;16.60;;;11.10;;
30934;SDS011;51033;42.648;23.292;2024-02-23T03:29:32;18.88;;;11.65;;
30934;SDS011;51033;42.648;23.292;2024-02-23T03:31:57;16.88;;;11.77;;
30934;SDS011;51033;42.648;23.292;2024-02-23T03:34:23;14.57;;;9.70;;
30934;SDS011;51033;42.648;23.292;2024-02-23T03:36:48;18.42;;;13.27;;
30934;SDS011;51033;42.648;23.292;2024-02-23T03:39:14;27.67;;;16.52;;
30934;SDS011;51033;42.648;23.292;2024-02-23T03:41:39;18.98;;;13.27;;
30934;SDS011;51033;42.648;23.292;2024-02-23T03:44:04;13.82;;;9.73;;
30934;SDS011;51033;42.648;23.292;2024-02-23T03:46:30;26.95;;;15.50;;
30934;SDS011;51033;42.648;23.292;2024-02-23T03:48:56;16.98;;;11.80;;
30934;SDS011;51033;42.648;23.292;2024-02-23T03:51:21;15.88;;;10.60;;
30934;SDS011;51033;42.648;23.292;2024-02-23T03:53:47;15.95;;;10.73;;
30934;SDS011;51033;42.648;23.292;2024-02-23T03:56:12;18.30;;;10.65;;
30934;SDS011;51033;42.648;23.292;2024-02-23T03:58:38;13.77;;;8.90;;
30934;SDS011;51033;42.648;23.292;2024-02-23T04:01:03;13.18;;;8.88;;
30934;SDS011;51033;42.648;23.292;2024-02-23T04:03:28;11.57;;;8.50;;
30934;SDS011;51033;42.648;23.292;2024-02-23T04:05:54;15.40;;;9.77;;
30934;SDS011;51033;42.648;23.292;2024-02-23T04:08:19;16.55;;;10.43;;
30934;SDS011;51033;42.648;23.292;2024-02-23T04:10:44;15.65;;;11.27;;
30934;SDS011;51033;42.648;23.292;2024-02-23T04:13:10;14.68;;;10.75;;
30934;SDS011;51033;42.648;23.292;2024-02-23T04:15:38;14.82;;;8.60;;
30934;SDS011;51033;42.648;23.292;2024-02-23T04:18:04;15.40;;;10.30;;
30934;SDS011;51033;42.648;23.292;2024-02-23T04:20:30;14.30;;;9.85;;
30934;SDS011;51033;42.648;23.292;2024-02-23T04:22:55;13.10;;;9.90;;
30934;SDS011;51033;42.648;23.292;2024-02-23T04:25:21;14.95;;;9.75;;
30934;SDS011;51033;42.648;23.292;2024-02-23T04:27:46;12.57;;;8.98;;
30934;SDS011;51033;42.648;23.292;2024-02-23T04:30:12;16.42;;;10.55;;
30934;SDS011;51033;42.648;23.292;2024-02-23T04:32:38;13.40;;;9.65;;
30934;SDS011;51033;42.648;23.292;2024-02-23T04:35:04;14.52;;;9.27;;
30934;SDS011;51033;42.648;23.292;2024-02-23T04:37:29;15.52;;;10.48;;
30934;SDS011;51033;42.648;23.292;2024-02-23T04:39:55;13.02;;;9.27;;
30934;SDS011;51033;42.648;23.292;2024-02-23T04:42:20;15.18;;;9.98;;
30934;SDS011;51033;42.648;23.292;2024-02-23T04:44:45;12.88;;;9.15;;
30934;SDS011;51033;42.648;23.292;2024-02-23T04:47:11;15.15;;;9.57;;
30934;SDS011;51033;42.648;23.292;2024-02-23T04:49:36;14.52;;;9.93;;
30934;SDS011;51033;42.648;23.292;2024-02-23T04:52:02;15.80;;;10.43;;
30934;SDS011;51033;42.648;23.292;2024-02-23T04:54:28;15.88;;;10.05;;
30934;SDS011;51033;42.648;23.292;2024-02-23T04:56:53;12.82;;;9.75;;
30934;SDS011;51033;42.648;23.292;2024-02-23T04:59:18;13.38;;;10.32;;
30934;SDS011;51033;42.648;23.292;2024-02-23T05:01:44;13.10;;;9.25;;
30934;SDS011;51033;42.648;23.292;2024-02-23T05:04:09;15.32;;;10.80;;
30934;SDS011;51033;42.648;23.292;2024-02-23T05:06:35;11.77;;;8.85;;
30934;SDS011;51033;42.648;23.292;2024-02-23T05:09:00;13.32;;;9.57;;
30934;SDS011;51033;42.648;23.292;2024-02-23T05:11:26;14.90;;;8.68;;
30934;SDS011;51033;42.648;23.292;2024-02-23T05:13:52;13.15;;;9.25;;
30934;SDS011;51033;42.648;23.292;2024-02-23T05:16:17;14.68;;;10.40;;
30934;SDS011;51033;42.648;23.292;2024-02-23T05:18:43;14.38;;;10.38;;
30934;SDS011;51033;42.648;23.292;2024-02-23T05:21:08;16.88;;;12.27;;
30934;SDS011;51033;42.648;23.292;2024-02-23T05:23:35;18.05;;;12.90;;
30934;SDS011;51033;42.648;23.292;2024-02-23T05:26:00;26.92;;;18.00;;
30934;SDS011;51033;42.648;23.292;2024-02-23T05:28:26;19.25;;;13.55;;
30934;SDS011;51033;42.648;23.292;2024-02-23T05:30:52;20.35;;;11.95;;
30934;SDS011;51033;42.648;23.292;2024-02-23T05:33:19;23.00;;;13.75;;
30934;SDS011;51033;42.648;23.292;2024-02-23T05:35:46;17.23;;;11.50;;
30934;SDS011;51033;42.648;23.292;2024-02-23T05:38:13;16.52;;;12.07;;
30934;SDS011;51033;42.648;23.292;2024-02-23T05:40:39;16.52;;;10.65;;
30934;SDS011;51033;42.648;23.292;2024-02-23T05:43:04;22.00;;;12.55;;
30934;SDS011;51033;42.648;23.292;2024-02-23T05:45:30;18.58;;;13.13;;
30934;SDS011;51033;42.648;23.292;2024-02-23T05:47:56;16.33;;;12.63;;
30934;SDS011;51033;42.648;23.292;2024-02-23T05:50:21;21.20;;;11.43;;
30934;SDS011;51033;42.648;23.292;2024-02-23T05:52:46;17.15;;;11.93;;
30934;SDS011;51033;42.648;23.292;2024-02-23T05:55:12;15.50;;;10.90;;
30934;SDS011;51033;42.648;23.292;2024-02-23T05:57:37;11.80;;;10.30;;
30934;SDS011;51033;42.648;23.292;2024-02-23T06:00:03;16.52;;;10.27;;
30934;SDS011;51033;42.648;23.292;2024-02-23T06:02:29;20.63;;;11.98;;
30934;SDS011;51033;42.648;23.292;2024-02-23T06:04:55;15.98;;;11.35;;
30934;SDS011;51033;42.648;23.292;2024-02-23T06:07:20;16.50;;;10.93;;
30934;SDS011;51033;42.648;23.292;2024-02-23T06:09:51;15.70;;;11.98;;
30934;SDS011;51033;42.648;23.292;2024-02-23T06:12:17;14.23;;;10.30;;
30934;SDS011;51033;42.648;23.292;2024-02-23T06:14:42;14.73;;;10.93;;
30934;SDS011;51033;42.648;23.292;2024-02-23T06:17:08;19.35;;;11.90;;
30934;SDS011;51033;42.648;23.292;2024-02-23T06:19:33;19.25;;;12.20;;
30934;SDS011;51033;42.648;23.292;2024-02-23T06:21:59;21.92;;;12.73;;
30934;SDS011;51033;42.648;23.292;2024-02-23T06:24:24;20.50;;;12.40;;
30934;SDS011;51033;42.648;23.292;2024-02-23T06:26:49;17.08;;;11.65;;
30934;SDS011;51033;42.648;23.292;2024-02-23T06:29:16;17.05;;;10.23;;
30934;SDS011;51033;42.648;23.292;2024-02-23T06:31:41;21.00;;;12.98;;
30934;SDS011;51033;42.648;23.292;2024-02-23T06:34:07;20.90;;;12.30;;
30934;SDS011;51033;42.648;23.292;2024-02-23T06:36:33;17.23;;;12.43;;
30934;SDS011;51033;42.648;23.292;2024-02-23T06:38:58;21.42;;;12.13;;
30934;SDS011;51033;42.648;23.292;2024-02-23T06:41:24;24.15;;;12.55;;
30934;SDS011;51033;42.648;23.292;2024-02-23T06:43:49;19.75;;;12.57;;
30934;SDS011;51033;42.648;23.292;2024-02-23T06:46:18;20.95;;;13.00;;
30934;SDS011;51033;42.648;23.292;2024-02-23T06:48:45;23.15;;;11.90;;
30934;SDS011;51033;42.648;23.292;2024-02-23T06:51:10;23.50;;;13.32;;
30934;SDS011;51033;42.648;23.292;2024-02-23T06:53:36;21.92;;;13.40;;
30934;SDS011;51033;42.648;23.292;2024-02-23T06:56:02;24.60;;;12.75;;
30934;SDS011;51033;42.648;23.292;2024-02-23T06:58:28;27.50;;;15.25;;
30934;SDS011;51033;42.648;23.292;2024-02-23T07:00:54;26.27;;;12.25;;
30934;SDS011;51033;42.648;23.292;2024-02-23T07:03:19;17.27;;;11.57;;
30934;SDS011;51033;42.648;23.292;2024-02-23T07:05:44;21.67;;;11.25;;
30934;SDS011;51033;42.648;23.292;2024-02-23T07:08:11;24.80;;;12.48;;
30934;SDS011;51033;42.648;23.292;2024-02-23T07:10:37;23.10;;;14.35;;
30934;SDS011;51033;42.648;23.292;2024-02-23T07:13:02;24.35;;;13.15;;
30934;SDS011;51033;42.648;23.292;2024-02-23T07:15:27;21.80;;;14.40;;
30934;SDS011;51033;42.648;23.292;2024-02-23T07:17:53;20.15;;;13.50;;
30934;SDS011;51033;42.648;23.292;2024-02-23T07:20:18;20.13;;;12.55;;
30934;SDS011;51033;42.648;23.292;2024-02-23T07:22:44;22.02;;;12.63;;
30934;SDS011;51033;42.648;23.292;2024-02-23T07:25:16;23.25;;;14.32;;
30934;SDS011;51033;42.648;23.292;2024-02-23T07:27:43;22.23;;;13.38;;
30934;SDS011;51033;42.648;23.292;2024-02-23T07:30:09;18.13;;;12.52;;
30934;SDS011;51033;42.648;23.292;2024-02-23T07:32:35;17.58;;;12.50;;
30934;SDS011;51033;42.648;23.292;2024-02-23T07:35:00;22.30;;;13.10;;
30934;SDS011;51033;42.648;23.292;2024-02-23T07:37:26;20.75;;;12.95;;
30934;SDS011;51033;42.648;23.292;2024-02-23T07:39:52;20.48;;;13.52;;
30934;SDS011;51033;42.648;23.292;2024-02-23T07:42:17;20.80;;;13.80;;
30934;SDS011;51033;42.648;23.292;2024-02-23T07:44:44;25.98;;;15.70;;
30934;SDS011;51033;42.648;23.292;2024-02-23T07:47:09;25.65;;;15.23;;
30934;SDS011;51033;42.648;23.292;2024-02-23T07:49:35;24.42;;;13.88;;
30934;SDS011;51033;42.648;23.292;2024-02-23T07:52:00;20.17;;;13.20;;
30934;SDS011;51033;42.648;23.292;2024-02-23T07:54:26;24.42;;;13.65;;
30934;SDS011;51033;42.648;23.292;2024-02-23T07:56:51;20.38;;;13.00;;
30934;SDS011;51033;42.648;23.292;2024-02-23T07:59:16;20.42;;;13.68;;
30934;SDS011;51033;42.648;23.292;2024-02-23T08:01:42;28.42;;;13.48;;
30934;SDS011;51033;42.648;23.292;2024-02-23T08:04:07;20.63;;;13.55;;
30934;SDS011;51033;42.648;23.292;2024-02-23T08:06:32;27.63;;;13.55;;
30934;SDS011;51033;42.648;23.292;2024-02-23T08:08:58;25.42;;;13.55;;
30934;SDS011;51033;42.648;23.292;2024-02-23T08:11:23;25.25;;;13.73;;
30934;SDS011;51033;42.648;23.292;2024-02-23T08:13:48;22.05;;;12.95;;
30934;SDS011;51033;42.648;23.292;2024-02-23T08:16:15;20.85;;;13.95;;
30934;SDS011;51033;42.648;23.292;2024-02-23T08:18:42;22.35;;;13.90;;
30934;SDS011;51033;42.648;23.292;2024-02-23T08:21:08;29.00;;;15.27;;
30934;SDS011;51033;42.648;23.292;2024-02-23T08:23:35;28.27;;;15.30;;
30934;SDS011;51033;42.648;23.292;2024-02-23T08:26:01;25.20;;;14.00;;
30934;SDS011;51033;42.648;23.292;2024-02-23T08:28:26;22.80;;;12.95;;
30934;SDS011;51033;42.648;23.292;2024-02-23T08:30:52;21.23;;;13.10;;
30934;SDS011;51033;42.648;23.292;2024-02-23T08:33:18;25.88;;;13.55;;
30934;SDS011;51033;42.648;23.292;2024-02-23T08:35:43;17.30;;;12.63;;
30934;SDS011;51033;42.648;23.292;2024-02-23T08:38:09;16.77;;;11.68;;
30934;SDS011;51033;42.648;23.292;2024-02-23T08:40:36;20.00;;;11.32;;
30934;SDS011;51033;42.648;23.292;2024-02-23T08:43:01;17.17;;;12.05;;
30934;SDS011;51033;42.648;23.292;2024-02-23T08:45:26;18.27;;;13.07;;
30934;SDS011;51033;42.648;23.292;2024-02-23T08:47:52;18.67;;;11.73;;
30934;SDS011;51033;42.648;23.292;2024-02-23T08:50:17;19.90;;;11.98;;
30934;SDS011;51033;42.648;23.292;2024-02-23T08:52:43;18.90;;;10.82;;
30934;SDS011;51033;42.648;23.292;2024-02-23T08:55:08;19.73;;;11.90;;
30934;SDS011;51033;42.648;23.292;2024-02-23T08:57:34;21.98;;;13.95;;
30934;SDS011;51033;42.648;23.292;2024-02-23T08:59:59;20.75;;;12.35;;
30934;SDS011;51033;42.648;23.292;2024-02-23T09:02:24;22.63;;;12.93;;
30934;SDS011;51033;42.648;23.292;2024-02-23T09:04:50;21.23;;;11.70;;
30934;SDS011;51033;42.648;23.292;2024-02-23T09:07:16;22.40;;;12.07;;
30934;SDS011;51033;42.648;23.292;2024-02-23T09:09:45;21.20;;;12.10;;
30934;SDS011;51033;42.648;23.292;2024-02-23T09:12:10;9.32;;;6.22;;
30934;SDS011;51033;42.648;23.292;2024-02-23T09:14:36;16.98;;;9.38;;
30934;SDS011;51033;42.648;23.292;2024-02-23T09:17:03;18.25;;;10.45;;
30934;SDS011;51033;42.648;23.292;2024-02-23T09:19:29;14.68;;;9.00;;
30934;SDS011;51033;42.648;23.292;2024-02-23T09:21:55;8.98;;;6.22;;
30934;SDS011;51033;42.648;23.292;2024-02-23T09:24:21;10.18;;;5.68;;
30934;SDS011;51033;42.648;23.292;2024-02-23T09:26:46;8.63;;;5.57;;
30934;SDS011;51033;42.648;23.292;2024-02-23T09:29:12;11.15;;;7.05;;
30934;SDS011;51033;42.648;23.292;2024-02-23T09:31:38;10.68;;;6.65;;
30934;SDS011;51033;42.648;23.292;2024-02-23T09:34:03;13.30;;;7.85;;
30934;SDS011;51033;42.648;23.292;2024-02-23T09:36:29;8.77;;;5.72;;
30934;SDS011;51033;42.648;23.292;2024-02-23T09:38:55;9.45;;;5.30;;
30934;SDS011;51033;42.648;23.292;2024-02-23T09:41:21;7.70;;;4.80;;
30934;SDS011;51033;42.648;23.292;2024-02-23T09:43:48;6.80;;;4.30;;
30934;SDS011;51033;42.648;23.292;2024-02-23T09:46:17;5.55;;;4.00;;
30934;SDS011;51033;42.648;23.292;2024-02-23T09:48:43;10.95;;;4.28;;
30934;SDS011;51033;42.648;23.292;2024-02-23T09:51:10;4.65;;;3.38;;
30934;SDS011;51033;42.648;23.292;2024-02-23T09:53:38;7.82;;;3.95;;
30934;SDS011;51033;42.648;23.292;2024-02-23T09:56:04;5.15;;;3.60;;
30934;SDS011;51033;42.648;23.292;2024-02-23T09:58:31;5.97;;;3.45;;
30934;SDS011;51033;42.648;23.292;2024-02-23T10:00:58;5.20;;;4.00;;
30934;SDS011;51033;42.648;23.292;2024-02-23T10:03:25;6.40;;;3.20;;
30934;SDS011;51033;42.648;23.292;2024-02-23T10:05:53;9.90;;;3.50;;
30934;SDS011;51033;42.648;23.292;2024-02-23T10:08:19;4.70;;;3.53;;
30934;SDS011;51033;42.648;23.292;2024-02-23T10:10:45;9.18;;;5.68;;
30934;SDS011;51033;42.648;23.292;2024-02-23T10:13:12;5.10;;;3.53;;
30934;SDS011;51033;42.648;23.292;2024-02-23T10:15:37;5.28;;;3.50;;
30934;SDS011;51033;42.648;23.292;2024-02-23T10:18:03;5.45;;;3.10;;
30934;SDS011;51033;42.648;23.292;2024-02-23T10:20:29;5.15;;;3.17;;
30934;SDS011;51033;42.648;23.292;2024-02-23T10:22:54;4.18;;;2.67;;
30934;SDS011;51033;42.648;23.292;2024-02-23T10:25:21;4.70;;;2.70;;
30934;SDS011;51033;42.648;23.292;2024-02-23T10:27:46;6.35;;;3.00;;
30934;SDS011;51033;42.648;23.292;2024-02-23T10:30:12;5.30;;;2.72;;
30934;SDS011;51033;42.648;23.292;2024-02-23T10:32:40;5.43;;;3.15;;
30934;SDS011;51033;42.648;23.292;2024-02-23T10:35:10;3.95;;;2.80;;
30934;SDS011;51033;42.648;23.292;2024-02-23T10:37:38;5.40;;;3.15;;
30934;SDS011;51033;42.648;23.292;2024-02-23T10:40:03;2.88;;;2.50;;
30934;SDS011;51033;42.648;23.292;2024-02-23T10:42:34;4.88;;;2.90;;
30934;SDS011;51033;42.648;23.292;2024-02-23T10:45:03;10.65;;;3.38;;
30934;SDS011;51033;42.648;23.292;2024-02-23T10:47:30;3.38;;;2.85;;
30934;SDS011;51033;42.648;23.292;2024-02-23T10:49:56;7.03;;;3.70;;
30934;SDS011;51033;42.648;23.292;2024-02-23T10:52:24;4.75;;;2.22;;
30934;SDS011;51033;42.648;23.292;2024-02-23T10:54:51;2.78;;;2.28;;
30934;SDS011;51033;42.648;23.292;2024-02-23T10:57:18;4.18;;;2.53;;
30934;SDS011;51033;42.648;23.292;2024-02-23T10:59:47;3.25;;;2.50;;
30934;SDS011;51033;42.648;23.292;2024-02-23T11:02:14;4.57;;;2.40;;
30934;SDS011;51033;42.648;23.292;2024-02-23T11:04:43;2.97;;;2.33;;
30934;SDS011;51033;42.648;23.292;2024-02-23T11:07:15;3.38;;;2.10;;
30934;SDS011;51033;42.648;23.292;2024-02-23T11:09:41;4.60;;;2.20;;
30934;SDS011;51033;42.648;23.292;2024-02-23T11:12:06;5.28;;;2.22;;
30934;SDS011;51033;42.648;23.292;2024-02-23T11:14:34;3.17;;;2.10;;
30934;SDS011;51033;42.648;23.292;2024-02-23T11:17:00;4.38;;;2.20;;
30934;SDS011;51033;42.648;23.292;2024-02-23T11:19:34;8.68;;;2.45;;
30934;SDS011;51033;42.648;23.292;2024-02-23T11:22:03;20.40;;;2.85;;
30934;SDS011;51033;42.648;23.292;2024-02-23T11:24:29;5.82;;;2.83;;
30934;SDS011;51033;42.648;23.292;2024-02-23T11:26:58;4.05;;;2.08;;
30934;SDS011;51033;42.648;23.292;2024-02-23T11:29:34;3.28;;;2.40;;
30934;SDS011;51033;42.648;23.292;2024-02-23T11:32:04;4.43;;;2.00;;
30934;SDS011;51033;42.648;23.292;2024-02-23T11:34:38;3.03;;;2.13;;
30934;SDS011;51033;42.648;23.292;2024-02-23T11:37:10;19.83;;;2.80;;
30934;SDS011;51033;42.648;23.292;2024-02-23T11:39:39;2.40;;;2.20;;
30934;SDS011;51033;42.648;23.292;2024-02-23T11:42:05;17.15;;;3.03;;
30934;SDS011;51033;42.648;23.292;2024-02-23T11:44:32;3.03;;;2.30;;
30934;SDS011;51033;42.648;23.292;2024-02-23T11:46:58;2.97;;;2.20;;
30934;SDS011;51033;42.648;23.292;2024-02-23T11:49:27;6.05;;;1.90;;
30934;SDS011;51033;42.648;23.292;2024-02-23T11:51:55;2.33;;;1.90;;
30934;SDS011;51033;42.648;23.292;2024-02-23T11:54:21;2.55;;;2.00;;
30934;SDS011;51033;42.648;23.292;2024-02-23T11:56:48;3.38;;;2.00;;
30934;SDS011;51033;42.648;23.292;2024-02-23T11:59:14;5.30;;;1.85;;
30934;SDS011;51033;42.648;23.292;2024-02-23T12:01:40;4.07;;;2.55;;
30934;SDS011;51033;42.648;23.292;2024-02-23T12:04:06;2.53;;;2.33;;
30934;SDS011;51033;42.648;23.292;2024-02-23T12:06:33;2.78;;;2.15;;
30934;SDS011;51033;42.648;23.292;2024-02-23T12:08:59;2.22;;;1.85;;
30934;SDS011;51033;42.648;23.292;2024-02-23T12:11:25;3.65;;;1.90;;
30934;SDS011;51033;42.648;23.292;2024-02-23T12:13:51;3.47;;;1.90;;
30934;SDS011;51033;42.648;23.292;2024-02-23T12:16:17;4.15;;;2.50;;
30934;SDS011;51033;42.648;23.292;2024-02-23T12:18:42;3.10;;;1.90;;
30934;SDS011;51033;42.648;23.292;2024-02-23T12:21:08;3.15;;;2.25;;
30934;SDS011;51033;42.648;23.292;2024-02-23T12:23:40;2.30;;;1.80;;
30934;SDS011;51033;42.648;23.292;2024-02-23T12:26:06;1.98;;;1.85;;
30934;SDS011;51033;42.648;23.292;2024-02-23T12:28:33;1.77;;;1.67;;
30934;SDS011;51033;42.648;23.292;2024-02-23T12:30:59;3.33;;;2.55;;
30934;SDS011;51033;42.648;23.292;2024-02-23T12:33:25;2.55;;;2.35;;
30934;SDS011;51033;42.648;23.292;2024-02-23T12:35:53;4.35;;;2.22;;
30934;SDS011;51033;42.648;23.292;2024-02-23T12:38:19;3.50;;;2.13;;
30934;SDS011;51033;42.648;23.292;2024-02-23T12:40:45;2.95;;;1.80;;
30934;SDS011;51033;42.648;23.292;2024-02-23T12:43:10;2.38;;;1.73;;
30934;SDS011;51033;42.648;23.292;2024-02-23T12:45:36;2.10;;;1.63;;
30934;SDS011;51033;42.648;23.292;2024-02-23T12:48:01;2.55;;;1.90;;
30934;SDS011;51033;42.648;23.292;2024-02-23T12:50:29;2.47;;;1.75;;
30934;SDS011;51033;42.648;23.292;2024-02-23T12:52:54;3.63;;;1.80;;
30934;SDS011;51033;42.648;23.292;2024-02-23T12:55:20;3.40;;;1.40;;
30934;SDS011;51033;42.648;23.292;2024-02-23T12:57:45;3.22;;;1.60;;
30934;SDS011;51033;42.648;23.292;2024-02-23T13:00:11;5.38;;;1.60;;
30934;SDS011;51033;42.648;23.292;2024-02-23T13:02:37;2.40;;;1.85;;
30934;SDS011;51033;42.648;23.292;2024-02-23T13:05:02;2.67;;;2.05;;
30934;SDS011;51033;42.648;23.292;2024-02-23T13:07:28;2.65;;;2.25;;
30934;SDS011;51033;42.648;23.292;2024-02-23T13:09:53;2.92;;;1.83;;
30934;SDS011;51033;42.648;23.292;2024-02-23T13:12:18;2.13;;;1.73;;
30934;SDS011;51033;42.648;23.292;2024-02-23T13:14:44;2.60;;;2.10;;
30934;SDS011;51033;42.648;23.292;2024-02-23T13:17:09;4.78;;;2.13;;
30934;SDS011;51033;42.648;23.292;2024-02-23T13:19:34;5.68;;;2.30;;
30934;SDS011;51033;42.648;23.292;2024-02-23T13:22:00;2.50;;;1.75;;
30934;SDS011;51033;42.648;23.292;2024-02-23T13:24:26;2.85;;;2.25;;
30934;SDS011;51033;42.648;23.292;2024-02-23T13:26:51;4.07;;;2.08;;
30934;SDS011;51033;42.648;23.292;2024-02-23T13:29:17;6.32;;;2.72;;
30934;SDS011;51033;42.648;23.292;2024-02-23T13:31:42;5.28;;;2.00;;
30934;SDS011;51033;42.648;23.292;2024-02-23T13:34:08;1.88;;;1.63;;
30934;SDS011;51033;42.648;23.292;2024-02-23T13:36:34;3.97;;;1.73;;
30934;SDS011;51033;42.648;23.292;2024-02-23T13:39:00;3.13;;;2.03;;
30934;SDS011;51033;42.648;23.292;2024-02-23T13:41:25;4.30;;;1.73;;
30934;SDS011;51033;42.648;23.292;2024-02-23T13:43:50;12.98;;;3.53;;
30934;SDS011;51033;42.648;23.292;2024-02-23T13:46:16;5.00;;;2.38;;
30934;SDS011;51033;42.648;23.292;2024-02-23T13:48:41;2.67;;;1.80;;
30934;SDS011;51033;42.648;23.292;2024-02-23T13:51:07;2.72;;;2.03;;
30934;SDS011;51033;42.648;23.292;2024-02-23T13:53:33;2.88;;;1.83;;
30934;SDS011;51033;42.648;23.292;2024-02-23T13:55:59;3.25;;;2.10;;
30934;SDS011;51033;42.648;23.292;2024-02-23T13:58:26;2.00;;;1.60;;
30934;SDS011;51033;42.648;23.292;2024-02-23T14:00:52;3.30;;;1.65;;
30934;SDS011;51033;42.648;23.292;2024-02-23T14:03:18;2.22;;;1.90;;
30934;SDS011;51033;42.648;23.292;2024-02-23T14:05:43;1.70;;;1.58;;
30934;SDS011;51033;42.648;23.292;2024-02-23T14:08:11;3.38;;;1.70;;
30934;SDS011;51033;42.648;23.292;2024-02-23T14:10:36;4.15;;;2.10;;